Time;durP1;ratioP1;P1;durP2;ratioP2;P2;SDS_P1;SDS_P2;PMS_P1;PMS_P2;Temp;Humidity;BMP_temperature;BMP_pressure;BME280_temperature;BME280_humidity;BME280_pressure;Samples;Min_cycle;Max_cycle;Signal;HPM_P1;HPM_P2
2023/12/08 00:00:45;;;;;;;55.30;24.80;;;;;;;2.37;100.00;97348.42;110527;1239;59673;-68
2023/12/08 00:03:29;;;;;;;53.20;23.90;;;;;;;2.35;100.00;97344.88;110487;1241;59703;-68
2023/12/08 00:06:00;;;;;;;52.50;23.00;;;;;;;2.31;100.00;97346.09;110404;1238;71374;-68
2023/12/08 00:08:31;;;;;;;44.70;21.10;;;;;;;2.38;100.00;97348.21;110382;1238;69007;-68
2023/12/08 00:11:02;;;;;;;38.20;18.50;;;;;;;2.43;100.00;97349.73;110638;1238;69318;-68
2023/12/08 00:13:35;;;;;;;46.10;22.50;;;;;;;2.46;100.00;97348.40;110612;1239;59740;-68
2023/12/08 00:16:08;;;;;;;37.40;17.80;;;;;;;2.49;100.00;97351.02;110559;1238;59684;-68
2023/12/08 00:18:39;;;;;;;41.20;19.60;;;;;;;2.52;100.00;97354.84;110558;1239;70622;-68
2023/12/08 00:21:11;;;;;;;39.20;19.30;;;;;;;2.52;100.00;97356.91;110556;1239;69206;-67
2023/12/08 00:23:41;;;;;;;41.30;20.60;;;;;;;2.45;100.00;97362.70;110601;1246;69122;-69
2023/12/08 00:26:14;;;;;;;59.10;23.80;;;;;;;2.41;100.00;97364.08;110535;1237;59736;-69
2023/12/08 00:28:45;;;;;;;47.80;20.80;;;;;;;2.41;100.00;97365.43;110613;1239;59643;-69
2023/12/08 00:31:16;;;;;;;55.20;22.70;;;;;;;2.36;100.00;97366.86;110544;1239;70467;-69
2023/12/08 00:33:47;;;;;;;40.10;19.70;;;;;;;2.32;100.00;97364.80;110660;1238;68499;-69
2023/12/08 00:36:18;;;;;;;44.30;20.20;;;;;;;2.35;100.00;97369.84;110469;1239;69347;-69
2023/12/08 00:38:49;;;;;;;36.60;18.60;;;;;;;2.36;100.00;97367.89;110491;1239;59734;-69
2023/12/08 00:41:22;;;;;;;46.00;19.70;;;;;;;2.35;100.00;97367.26;110537;1239;59731;-69
2023/12/08 00:43:52;;;;;;;47.20;20.20;;;;;;;2.36;100.00;97367.04;110700;1239;71396;-69
2023/12/08 00:46:22;;;;;;;;;;;;;;;2.35;100.00;97369.48;110610;1240;69324;-69
2023/12/08 00:48:53;;;;;;;;;;;;;;;2.37;100.00;97369.06;110573;1240;69339;-69
2023/12/08 00:51:26;;;;;;;29.90;14.20;;;;;;;2.37;100.00;97371.98;110597;1239;59698;-69
2023/12/08 00:54:00;;;;;;;32.60;15.80;;;;;;;2.39;100.00;97374.45;110643;1239;59696;-69
2023/12/08 00:56:33;;;;;;;29.10;14.10;;;;;;;2.42;100.00;97376.94;110496;1241;71366;-69
2023/12/08 00:59:07;;;;;;;22.80;12.60;;;;;;;2.44;100.00;97373.22;110417;1243;69311;-69
2023/12/08 01:01:41;;;;;;;27.90;13.80;;;;;;;2.46;100.00;97369.34;110584;1238;68566;-68
2023/12/08 01:04:13;;;;;;;25.40;12.20;;;;;;;2.49;100.00;97368.73;110576;1239;59750;-68
2023/12/08 01:06:43;;;;;;;25.30;14.20;;;;;;;2.51;100.00;97366.43;110575;1238;59740;-68
2023/12/08 01:09:14;;;;;;;21.80;12.00;;;;;;;2.52;100.00;97362.59;110573;1241;70458;-69
2023/12/08 01:11:50;;;;;;;24.80;14.10;;;;;;;2.53;100.00;97361.16;110369;1241;69191;-68
2023/12/08 01:14:20;;;;;;;24.70;13.60;;;;;;;2.53;100.00;97365.13;110431;1238;68528;-68
2023/12/08 01:16:53;;;;;;;20.60;11.80;;;;;;;2.53;100.00;97364.09;110505;1239;60084;-69
2023/12/08 01:19:27;;;;;;;26.30;13.20;;;;;;;2.53;100.00;97362.17;110470;1241;59711;-69
2023/12/08 01:22:01;;;;;;;22.30;10.90;;;;;;;2.54;100.00;97363.70;110523;1238;71353;-69
2023/12/08 01:24:32;;;;;;;24.30;12.70;;;;;;;2.54;100.00;97361.48;110530;1238;68744;-69
2023/12/08 01:27:04;;;;;;;22.60;11.00;;;;;;;2.52;100.00;97366.02;110413;1238;68662;-68
2023/12/08 01:29:38;;;;;;;19.90;10.30;;;;;;;2.50;100.00;97362.83;110484;1238;59679;-68
2023/12/08 01:32:12;;;;;;;21.10;11.50;;;;;;;2.50;100.00;97362.31;110451;1242;59646;-69
2023/12/08 01:34:46;;;;;;;18.60;10.10;;;;;;;2.49;100.00;97359.09;110490;1240;71285;-68
2023/12/08 01:37:22;;;;;;;23.80;12.10;;;;;;;2.47;100.00;97357.64;110423;1241;69564;-68
2023/12/08 01:39:54;;;;;;;21.90;11.20;;;;;;;2.46;100.00;97356.48;110649;1238;68539;-68
2023/12/08 01:42:29;;;;;;;19.60;10.20;;;;;;;2.43;100.00;97351.60;110446;1242;59649;-68
2023/12/08 01:45:03;;;;;;;18.20;9.40;;;;;;;2.42;100.00;97354.73;110458;1241;59695;-68
2023/12/08 01:47:36;;;;;;;15.40;8.70;;;;;;;2.44;100.00;97349.34;110400;1241;70686;-68
2023/12/08 01:50:19;;;;;;;;;;;;;;;2.42;100.00;97351.46;110532;1238;68571;-68
2023/12/08 01:52:52;;;;;;;16.70;9.50;;;;;;;2.41;100.00;97350.67;109830;1238;988336;-68
2023/12/08 01:55:30;;;;;;;17.10;8.80;;;;;;;2.41;100.00;97355.99;110618;1242;59718;-68
2023/12/08 01:58:04;;;;;;;17.10;9.20;;;;;;;2.40;100.00;97360.33;110553;1240;59649;-68
2023/12/08 02:00:43;;;;;;;18.30;9.60;;;;;;;2.37;100.00;97355.98;110415;1241;70695;-68
2023/12/08 02:03:17;;;;;;;16.00;8.90;;;;;;;2.36;100.00;97356.05;110459;1244;69529;-68
2023/12/08 02:05:55;;;;;;;25.60;13.70;;;;;;;2.31;100.00;97358.29;110277;1242;69281;-68
2023/12/08 02:08:28;;;;;;;24.80;11.90;;;;;;;2.23;100.00;97363.44;110524;1240;59701;-68
2023/12/08 02:11:00;;;;;;;22.90;13.00;;;;;;;2.24;100.00;97357.57;110456;1240;59734;-68
2023/12/08 02:13:31;;;;;;;27.20;13.30;;;;;;;2.22;100.00;97357.26;110388;1240;71494;-68
2023/12/08 02:16:14;;;;;;;28.50;12.70;;;;;;;2.19;100.00;97356.38;110407;1240;68263;-68
2023/12/08 02:18:46;;;;;;;27.30;13.50;;;;;;;2.15;100.00;97357.05;110349;1241;68166;-68
2023/12/08 02:21:18;;;;;;;22.80;12.10;;;;;;;2.14;100.00;97357.96;110513;1240;59750;-68
2023/12/08 02:23:53;;;;;;;34.50;15.70;;;;;;;2.06;100.00;97356.36;110422;1241;59682;-68
2023/12/08 02:26:25;;;;;;;27.30;14.10;;;;;;;2.02;100.00;97360.64;110382;1238;72150;-68
2023/12/08 02:29:00;;;;;;;24.10;11.80;;;;;;;2.00;100.00;97360.41;110385;1240;69205;-68
2023/12/08 02:31:55;;;;;;;18.90;10.10;;;;;;;2.01;100.00;97360.31;110378;1242;68542;-68
2023/12/08 02:34:29;;;;;;;21.50;11.10;;;;;;;2.07;100.00;97365.27;110405;1240;60063;-68
2023/12/08 02:37:04;;;;;;;23.30;11.30;;;;;;;2.13;100.00;97365.92;110255;1245;59672;-68
2023/12/08 02:39:54;;;;;;;20.20;9.50;;;;;;;2.17;100.00;97365.56;110514;1238;71630;-68
2023/12/08 02:42:25;;;;;;;19.20;10.10;;;;;;;2.16;100.00;97366.30;110433;1238;67865;-68
2023/12/08 02:44:57;;;;;;;22.70;11.50;;;;;;;2.17;100.00;97363.34;110378;1240;68240;-68
2023/12/08 02:47:29;;;;;;;23.80;11.30;;;;;;;2.18;100.00;97361.77;110408;1238;59695;-68
2023/12/08 02:50:02;;;;;;;22.60;12.30;;;;;;;2.18;100.00;97363.83;110460;1238;59628;-68
2023/12/08 02:52:37;;;;;;;17.10;10.20;;;;;;;2.19;100.00;97365.85;110396;1240;70911;-68
2023/12/08 02:55:07;;;;;;;;;;;;;;;2.19;100.00;97370.45;110413;1242;68591;-68
2023/12/08 02:57:38;;;;;;;18.50;9.40;;;;;;;2.21;100.00;97371.23;110285;1238;67747;-68
2023/12/08 03:00:12;;;;;;;18.30;10.30;;;;;;;2.30;100.00;97370.17;110406;1238;59723;-69
2023/12/08 03:02:46;;;;;;;17.30;8.50;;;;;;;2.33;100.00;97372.14;110555;1242;59625;-68
2023/12/08 03:05:18;;;;;;;13.40;7.80;;;;;;;2.35;100.00;97373.95;110418;1238;71424;-68
2023/12/08 03:07:49;;;;;;;19.40;10.90;;;;;;;2.36;100.00;97378.06;110571;1238;68419;-67
2023/12/08 03:10:19;;;;;;;16.30;9.80;;;;;;;2.36;100.00;97377.00;110491;1239;68794;-68
2023/12/08 03:12:50;;;;;;;21.10;10.70;;;;;;;2.35;100.00;97376.86;110626;1240;59702;-67
2023/12/08 03:15:23;;;;;;;25.80;13.10;;;;;;;2.31;100.00;97378.39;110507;1238;59711;-68
2023/12/08 03:17:56;;;;;;;21.50;12.40;;;;;;;2.28;100.00;97378.38;110351;1238;70625;-68
2023/12/08 03:20:27;;;;;;;21.40;12.00;;;;;;;2.26;100.00;97377.05;110269;1244;68335;-68
2023/12/08 03:22:57;;;;;;;21.20;12.30;;;;;;;2.23;100.00;97381.84;110379;1238;68360;-68
2023/12/08 03:25:27;;;;;;;27.90;14.30;;;;;;;2.24;100.00;97383.36;110293;1242;59751;-68
2023/12/08 03:27:58;;;;;;;21.60;13.40;;;;;;;2.22;100.00;97382.05;110294;1238;59660;-68
2023/12/08 03:30:30;;;;;;;26.40;12.90;;;;;;;2.17;100.00;97381.36;110575;1241;71225;-68
2023/12/08 03:33:01;;;;;;;24.30;13.40;;;;;;;2.10;100.00;97378.39;110291;1245;69290;-68
2023/12/08 03:35:33;;;;;;;24.10;12.70;;;;;;;2.01;100.00;97388.89;110409;1241;69142;-68
2023/12/08 03:38:04;;;;;;;23.20;12.00;;;;;;;1.97;100.00;97390.77;110437;1240;59690;-68
2023/12/08 03:40:35;;;;;;;20.70;12.20;;;;;;;2.02;100.00;97387.80;110441;1240;60266;-68
2023/12/08 03:43:09;;;;;;;18.30;11.20;;;;;;;2.06;100.00;97387.64;110414;1241;71798;-68
2023/12/08 03:45:40;;;;;;;21.30;11.50;;;;;;;2.10;100.00;97380.97;110393;1238;68339;-70
2023/12/08 03:48:12;;;;;;;22.40;12.50;;;;;;;2.12;100.00;97385.21;110424;1238;69118;-69
2023/12/08 03:50:43;;;;;;;21.10;11.30;;;;;;;2.06;100.00;97383.04;110459;1238;59664;-69
2023/12/08 03:53:14;;;;;;;18.80;10.70;;;;;;;2.11;100.00;97387.48;110481;1240;59684;-67
2023/12/08 03:55:44;;;;;;;18.50;9.40;;;;;;;2.15;100.00;97390.90;110505;1240;71950;-68
2023/12/08 03:58:15;;;;;;;21.00;12.40;;;;;;;2.11;100.00;97394.86;110603;1240;68375;-67
2023/12/08 04:00:46;;;;;;;17.40;10.40;;;;;;;2.09;100.00;97396.31;110521;1241;69793;-67
2023/12/08 04:03:17;;;;;;;19.40;11.20;;;;;;;2.11;100.00;97395.91;110385;1240;59753;-67
2023/12/08 04:05:49;;;;;;;17.50;11.00;;;;;;;2.09;100.00;97398.19;110450;1241;59667;-67
2023/12/08 04:08:20;;;;;;;18.70;10.30;;;;;;;2.12;100.00;97398.63;110393;1242;71739;-67
2023/12/08 04:10:51;;;;;;;18.50;10.50;;;;;;;2.15;100.00;97396.44;110466;1238;69656;-67
2023/12/08 04:13:22;;;;;;;18.80;9.90;;;;;;;2.17;100.00;97394.11;110400;1240;69299;-67
2023/12/08 04:15:53;;;;;;;18.20;10.10;;;;;;;2.15;100.00;97397.46;110277;1238;59755;-67
2023/12/08 04:18:25;;;;;;;22.20;10.90;;;;;;;2.08;100.00;97399.63;110404;1241;59666;-67
2023/12/08 04:20:56;;;;;;;18.40;10.90;;;;;;;2.12;100.00;97398.42;110364;1238;70446;-67
2023/12/08 04:23:27;;;;;;;21.10;11.30;;;;;;;2.15;100.00;97397.11;110393;1241;69057;-69
2023/12/08 04:25:58;;;;;;;19.40;11.10;;;;;;;2.18;100.00;97396.15;110355;1238;69451;-69
2023/12/08 04:28:29;;;;;;;20.70;11.10;;;;;;;2.17;100.00;97397.73;110250;1242;60088;-68
2023/12/08 04:30:59;;;;;;;;;;;;;;;2.15;100.00;97401.27;110391;1240;59646;-68
2023/12/08 04:33:31;;;;;;;23.40;12.10;;;;;;;2.16;100.00;97399.81;110372;1241;70604;-67
2023/12/08 04:36:00;;;;;;;;;;;;;;;2.18;100.00;97405.25;110413;1241;68529;-67
2023/12/08 04:38:30;;;;;;;18.60;10.90;;;;;;;2.20;100.00;97398.28;110336;1238;69112;-67
2023/12/08 04:41:00;;;;;;;19.90;11.20;;;;;;;2.19;100.00;97399.90;110411;1240;59677;-67
2023/12/08 04:43:31;;;;;;;17.10;10.00;;;;;;;2.17;100.00;97404.94;110518;1241;59684;-68
2023/12/08 04:46:00;;;;;;;17.90;9.80;;;;;;;2.19;100.00;97408.66;110469;1240;71345;-68
2023/12/08 04:48:31;;;;;;;17.60;10.60;;;;;;;2.16;100.00;97410.64;110461;1242;69304;-68
2023/12/08 04:51:02;;;;;;;17.10;9.60;;;;;;;2.15;100.00;97409.66;110495;1240;69321;-68
2023/12/08 04:53:32;;;;;;;21.80;11.70;;;;;;;2.14;100.00;97408.66;110553;1238;59746;-69
2023/12/08 04:56:04;;;;;;;17.40;10.80;;;;;;;2.13;100.00;97406.14;110470;1238;59676;-68
2023/12/08 04:58:35;;;;;;;18.70;9.50;;;;;;;2.11;100.00;97404.16;110523;1241;71180;-68
2023/12/08 05:01:11;;;;;;;16.60;9.10;;;;;;;2.11;100.00;97404.99;110579;1241;69285;-68
2023/12/08 05:03:42;;;;;;;19.80;9.50;;;;;;;2.11;100.00;97406.58;110676;1242;69150;-69
2023/12/08 05:06:13;;;;;;;17.70;9.60;;;;;;;2.09;100.00;97411.62;110646;1242;59663;-68
2023/12/08 05:08:43;;;;;;;14.90;9.80;;;;;;;2.09;100.00;97410.41;110632;1239;59698;-68
2023/12/08 05:11:12;;;;;;;15.70;9.40;;;;;;;2.08;100.00;97413.04;110607;1241;70798;-69
2023/12/08 05:13:43;;;;;;;16.70;9.60;;;;;;;2.07;100.00;97414.77;110491;1238;69193;-68
2023/12/08 05:16:14;;;;;;;22.60;12.40;;;;;;;2.02;100.00;97422.70;110608;1241;69908;-69
2023/12/08 05:18:45;;;;;;;18.50;11.10;;;;;;;2.02;100.00;97423.06;110496;1242;59734;-68
2023/12/08 05:21:16;;;;;;;24.50;15.20;;;;;;;2.01;100.00;97424.63;110423;1240;59732;-69
2023/12/08 05:23:45;;;;;;;25.40;14.60;;;;;;;1.95;100.00;97432.61;110353;1238;71410;-68
2023/12/08 05:26:15;;;;;;;23.50;13.40;;;;;;;1.90;100.00;97428.99;110592;1238;69255;-69
2023/12/08 05:28:46;;;;;;;19.40;12.30;;;;;;;1.92;100.00;97428.42;110429;1240;68662;-69
2023/12/08 05:31:15;;;;;;;23.20;12.20;;;;;;;1.89;100.00;97426.83;110449;1241;59786;-68
2023/12/08 05:33:46;;;;;;;25.00;15.00;;;;;;;1.88;100.00;97423.95;110568;1238;59692;-68
2023/12/08 05:36:17;;;;;;;22.70;12.60;;;;;;;1.86;100.00;97422.45;110414;1240;71362;-70
2023/12/08 05:38:48;;;;;;;25.20;13.20;;;;;;;1.83;100.00;97421.56;110515;1238;69114;-69
2023/12/08 05:41:18;;;;;;;22.90;13.40;;;;;;;1.83;100.00;97418.79;110412;1239;69654;-69
2023/12/08 05:43:49;;;;;;;23.80;13.10;;;;;;;1.86;100.00;97419.56;110534;1240;59660;-68
2023/12/08 05:46:18;;;;;;;22.50;12.80;;;;;;;1.85;100.00;97418.89;110472;1241;59790;-68
2023/12/08 05:48:48;;;;;;;21.60;11.60;;;;;;;1.83;100.00;97422.91;110596;1248;71234;-68
2023/12/08 05:51:17;;;;;;;21.80;13.10;;;;;;;1.80;100.00;97420.30;110554;1238;69355;-68
2023/12/08 05:53:48;;;;;;;23.40;13.20;;;;;;;1.76;100.00;97424.74;110588;1241;68336;-67
2023/12/08 05:56:18;;;;;;;22.30;13.90;;;;;;;1.78;100.00;97423.95;110409;1240;59737;-68
2023/12/08 05:58:48;;;;;;;;;;;;;;;1.81;100.00;97423.70;110413;1241;59632;-68
2023/12/08 06:01:18;;;;;;;19.30;10.60;;;;;;;1.81;100.00;97426.79;110494;1242;71308;-67
2023/12/08 06:03:48;;;;;;;22.70;12.40;;;;;;;1.81;100.00;97426.61;110449;1240;67614;-68
2023/12/08 06:06:18;;;;;;;18.90;11.20;;;;;;;1.82;100.00;97430.55;110312;1242;69278;-68
2023/12/08 06:08:48;;;;;;;17.40;9.90;;;;;;;1.83;100.00;97430.98;110489;1240;59766;-67
2023/12/08 06:11:18;;;;;;;18.70;10.80;;;;;;;1.82;100.00;97430.00;110448;1240;60563;-68
2023/12/08 06:13:47;;;;;;;18.50;10.60;;;;;;;1.83;100.00;97431.15;110551;1238;71373;-68
2023/12/08 06:16:18;;;;;;;21.20;11.90;;;;;;;1.84;100.00;97430.26;110598;1238;68479;-68
2023/12/08 06:18:47;;;;;;;22.00;11.70;;;;;;;1.84;100.00;97430.95;110467;1242;69899;-67
2023/12/08 06:21:17;;;;;;;18.70;10.30;;;;;;;1.83;100.00;97432.73;110486;1240;59695;-67
2023/12/08 06:23:47;;;;;;;18.30;10.20;;;;;;;1.85;100.00;97429.55;110386;1241;59686;-68
2023/12/08 06:26:17;;;;;;;22.30;11.60;;;;;;;1.85;100.00;97434.88;110507;1240;70606;-67
2023/12/08 06:28:47;;;;;;;19.40;10.80;;;;;;;1.87;100.00;97437.20;110357;1240;68718;-67
2023/12/08 06:31:17;;;;;;;23.70;11.30;;;;;;;1.89;100.00;97439.52;110466;1240;69265;-68
2023/12/08 06:33:46;;;;;;;31.60;16.10;;;;;;;1.89;100.00;97439.02;110462;1238;59667;-68
2023/12/08 06:36:33;;;;;;;58.60;30.10;;;;;;;1.88;100.00;97441.12;110386;1241;59638;-68
2023/12/08 06:39:03;;;;;;;45.20;24.40;;;;;;;1.84;100.00;97444.70;110444;1240;71056;-68
2023/12/08 06:41:35;;;;;;;36.90;19.80;;;;;;;1.88;100.00;97442.50;110550;1240;69853;-68
2023/12/08 06:44:05;;;;;;;27.70;16.60;;;;;;;1.91;100.00;97448.08;110457;1241;68751;-68
2023/12/08 06:46:35;;;;;;;25.10;14.30;;;;;;;1.88;100.00;97452.10;110601;1241;59707;-68
2023/12/08 06:49:05;;;;;;;23.20;13.50;;;;;;;1.90;100.00;97456.00;110577;1240;59666;-68
2023/12/08 06:51:35;;;;;;;25.90;13.90;;;;;;;1.86;100.00;97455.11;110502;1241;71334;-68
2023/12/08 06:54:05;;;;;;;;;;;;;;;1.80;100.00;97457.42;110430;1238;69518;-68
2023/12/08 06:56:35;;;;;;;19.80;11.10;;;;;;;1.78;100.00;97464.02;110407;1238;69267;-68
2023/12/08 06:59:04;;;;;;;19.60;11.20;;;;;;;1.74;100.00;97463.63;110448;1243;59709;-68
2023/12/08 07:01:35;;;;;;;20.00;11.70;;;;;;;1.72;100.00;97469.20;110450;1240;59678;-68
2023/12/08 07:04:04;;;;;;;;;;;;;;;1.70;100.00;97471.16;110505;1240;71209;-68
2023/12/08 07:06:34;;;;;;;24.50;13.70;;;;;;;1.65;100.00;97473.26;110506;1238;69328;-68
2023/12/08 07:09:03;;;;;;;20.10;12.40;;;;;;;1.67;100.00;97479.67;110358;1238;68508;-68
2023/12/08 07:11:33;;;;;;;20.80;12.20;;;;;;;1.71;100.00;97482.64;110407;1240;59737;-68
2023/12/08 07:14:03;;;;;;;23.40;13.20;;;;;;;1.74;100.00;97483.73;110419;1238;59750;-68
2023/12/08 07:16:32;;;;;;;22.30;13.80;;;;;;;1.77;100.00;97481.55;110458;1238;71887;-68
2023/12/08 07:19:02;;;;;;;22.40;12.50;;;;;;;1.80;100.00;97482.15;110521;1241;69219;-68
2023/12/08 07:21:31;;;;;;;17.30;10.90;;;;;;;1.80;100.00;97484.56;110348;1241;69265;-68
2023/12/08 07:24:00;;;;;;;26.60;14.60;;;;;;;1.82;100.00;97481.73;110320;1242;59683;-68
2023/12/08 07:26:31;;;;;;;23.90;15.70;;;;;;;1.82;100.00;97480.88;110412;1241;59753;-68
2023/12/08 07:29:00;;;;;;;23.70;14.20;;;;;;;1.69;100.00;97485.31;110404;1238;71407;-68
2023/12/08 07:31:30;;;;;;;29.20;16.00;;;;;;;1.64;100.00;97487.70;110505;1238;69842;-68
2023/12/08 07:34:00;;;;;;;23.80;12.60;;;;;;;1.65;100.00;97489.73;110438;1241;69302;-68
2023/12/08 07:36:30;;;;;;;21.30;12.40;;;;;;;1.69;100.00;97492.17;110555;1238;59712;-69
2023/12/08 07:39:00;;;;;;;28.50;15.50;;;;;;;1.67;100.00;97496.16;110560;1239;59747;-69
2023/12/08 07:41:30;;;;;;;25.20;14.90;;;;;;;1.67;100.00;97494.64;110368;1238;71428;-68
2023/12/08 07:43:59;;;;;;;29.60;15.60;;;;;;;1.64;100.00;97492.85;110350;1241;69206;-68
2023/12/08 07:46:31;;;;;;;28.00;15.80;;;;;;;1.65;100.00;97492.83;110397;1242;69959;-68
2023/12/08 07:48:59;;;;;;;22.20;12.90;;;;;;;1.70;100.00;97494.88;110383;1241;59718;-68
2023/12/08 07:51:32;;;;;;;31.00;16.30;;;;;;;1.67;100.00;97489.82;110439;1241;59686;-68
2023/12/08 07:54:03;;;;;;;27.70;15.80;;;;;;;1.68;100.00;97489.09;110341;1238;72029;-68
2023/12/08 07:56:33;;;;;;;27.40;14.90;;;;;;;1.72;100.00;97493.95;110489;1238;68607;-68
2023/12/08 07:59:02;;;;;;;23.90;13.80;;;;;;;1.80;100.00;97497.95;110235;1242;69403;-68
2023/12/08 08:01:33;;;;;;;29.30;17.40;;;;;;;1.85;100.00;97498.63;110456;1238;59740;-68
2023/12/08 08:04:02;;;;;;;30.20;17.30;;;;;;;1.82;100.00;97503.20;110398;1241;59728;-69
2023/12/08 08:06:31;;;;;;;29.90;16.00;;;;;;;1.72;100.00;97502.00;110492;1238;70426;-69
2023/12/08 08:09:03;;;;;;;26.90;15.30;;;;;;;1.73;100.00;97501.65;110295;1238;69123;-69
2023/12/08 08:11:33;;;;;;;24.90;14.00;;;;;;;1.78;100.00;97501.64;110491;1241;68251;-69
2023/12/08 08:14:02;;;;;;;26.40;14.30;;;;;;;1.81;100.00;97502.71;110521;1241;59707;-68
2023/12/08 08:16:32;;;;;;;;;;;;;;;1.90;100.00;97509.28;110508;1240;59727;-68
2023/12/08 08:19:01;;;;;;;24.20;13.10;;;;;;;1.95;100.00;97514.59;110479;1238;71373;-68
2023/12/08 08:21:32;;;;;;;21.30;11.60;;;;;;;1.95;100.00;97517.50;110390;1240;69233;-68
2023/12/08 08:24:01;;;;;;;24.30;14.30;;;;;;;1.97;100.00;97521.58;110514;1241;69318;-67
2023/12/08 08:26:32;;;;;;;25.50;15.50;;;;;;;1.92;100.00;97522.60;110516;1240;59657;-68
2023/12/08 08:29:01;;;;;;;29.90;15.90;;;;;;;1.88;100.00;97522.77;110406;1240;59638;-68
2023/12/08 08:31:30;;;;;;;29.70;15.90;;;;;;;1.91;100.00;97526.23;110405;1240;70577;-68
2023/12/08 08:34:00;;;;;;;27.90;15.80;;;;;;;1.85;100.00;97523.90;110331;1238;69116;-68
2023/12/08 08:36:30;;;;;;;28.20;15.30;;;;;;;1.89;100.00;97523.74;110605;1238;68515;-68
2023/12/08 08:38:59;;;;;;;25.60;14.10;;;;;;;1.94;100.00;97525.62;110539;1242;59630;-67
2023/12/08 08:41:29;;;;;;;25.00;13.90;;;;;;;2.02;100.00;97529.80;110450;1242;59775;-68
2023/12/08 08:43:59;;;;;;;23.60;12.90;;;;;;;2.07;100.00;97526.20;110413;1240;71402;-68
2023/12/08 08:46:29;;;;;;;25.20;13.10;;;;;;;2.11;100.00;97523.29;110399;1238;68685;-68
2023/12/08 08:48:59;;;;;;;18.30;11.10;;;;;;;2.15;100.00;97521.80;110366;1241;68500;-68
2023/12/08 08:51:28;;;;;;;22.30;12.20;;;;;;;2.19;100.00;97522.15;110303;1238;59717;-68
2023/12/08 08:53:58;;;;;;;24.70;12.60;;;;;;;2.22;100.00;97521.52;110401;1241;59713;-68
2023/12/08 08:56:28;;;;;;;27.20;14.10;;;;;;;2.26;100.00;97519.79;110397;1238;71250;-68
2023/12/08 08:58:57;;;;;;;23.80;13.50;;;;;;;2.27;100.00;97517.34;110384;1242;68616;-68
2023/12/08 09:01:28;;;;;;;23.10;14.50;;;;;;;2.24;100.00;97518.33;110354;1242;69334;-68
2023/12/08 09:03:57;;;;;;;19.70;11.30;;;;;;;2.26;100.00;97515.64;110558;1240;59778;-68
2023/12/08 09:06:27;;;;;;;22.30;13.30;;;;;;;2.27;100.00;97513.73;110568;1241;59658;-68
2023/12/08 09:08:57;;;;;;;18.60;11.30;;;;;;;2.27;100.00;97512.55;110514;1241;71392;-68
2023/12/08 09:11:26;;;;;;;26.70;14.30;;;;;;;2.28;100.00;97507.53;110470;1241;69799;-68
2023/12/08 09:13:55;;;;;;;24.00;13.10;;;;;;;2.29;100.00;97508.15;110478;1242;67494;-68
2023/12/08 09:16:24;;;;;;;22.70;13.30;;;;;;;2.34;100.00;97511.76;110282;1244;59675;-68
2023/12/08 09:18:55;;;;;;;21.40;13.20;;;;;;;2.35;100.00;97507.44;110398;1239;59654;-68
2023/12/08 09:21:25;;;;;;;25.30;13.90;;;;;;;2.37;100.00;97504.09;110365;1241;71703;-68
2023/12/08 09:23:54;;;;;;;26.70;15.20;;;;;;;2.37;100.00;97499.60;110275;1240;68765;-68
2023/12/08 09:26:26;;;;;;;22.60;12.50;;;;;;;2.36;100.00;97499.11;110388;1242;69054;-68
2023/12/08 09:28:55;;;;;;;28.30;16.30;;;;;;;2.37;100.00;97495.14;110372;1241;59681;-68
2023/12/08 09:31:25;;;;;;;25.10;14.10;;;;;;;2.39;100.00;97491.29;110516;1241;59735;-68
2023/12/08 09:33:56;;;;;;;28.80;15.80;;;;;;;2.43;100.00;97485.09;110393;1241;70671;-68
2023/12/08 09:36:26;;;;;;;31.50;17.30;;;;;;;2.46;100.00;97481.53;110361;1241;68456;-67
2023/12/08 09:38:57;;;;;;;30.70;16.70;;;;;;;2.43;100.00;97476.64;110394;1241;67718;-68
2023/12/08 09:41:27;;;;;;;24.90;14.60;;;;;;;2.43;100.00;97475.10;110443;1238;59759;-68
2023/12/08 09:44:13;;;;;;;25.60;14.20;;;;;;;2.48;100.00;97474.05;110412;1240;59640;-69
2023/12/08 09:46:45;;;;;;;29.40;14.80;;;;;;;2.55;100.00;97469.48;110534;1242;71895;-68
2023/12/08 09:49:40;;;;;;;26.50;14.50;;;;;;;2.62;100.00;97460.23;110476;1238;68721;-69
2023/12/08 09:52:13;;;;;;;29.60;16.90;;;;;;;2.71;100.00;97460.05;110390;1243;68129;-69
2023/12/08 09:54:44;;;;;;;29.70;15.70;;;;;;;2.77;100.00;97454.49;110427;1238;59754;-69
2023/12/08 09:57:15;;;;;;;22.80;14.40;;;;;;;2.77;100.00;97455.17;110551;1239;59717;-69
2023/12/08 09:59:47;;;;;;;25.20;13.80;;;;;;;2.77;100.00;97455.85;110408;1240;71398;-69
2023/12/08 10:02:18;;;;;;;24.70;14.30;;;;;;;2.82;100.00;97457.89;110447;1238;68766;-69
2023/12/08 10:04:47;;;;;;;26.60;15.00;;;;;;;2.90;100.00;97451.37;110378;1242;68886;-68
2023/12/08 10:07:18;;;;;;;18.70;12.00;;;;;;;3.07;100.00;97446.35;110343;1240;59699;-69
2023/12/08 10:09:48;;;;;;;20.50;12.40;;;;;;;3.36;100.00;97445.28;110393;1241;59705;-68
2023/12/08 10:12:17;;;;;;;21.20;12.80;;;;;;;3.38;100.00;97446.43;110546;1238;70691;-68
2023/12/08 10:14:58;;;;;;;20.80;11.90;;;;;;;3.43;100.00;97444.99;110392;1238;69441;-69
2023/12/08 10:17:27;;;;;;;21.00;12.90;;;;;;;3.40;100.00;97448.56;110394;1242;69269;-69
2023/12/08 10:20:08;;;;;;;;;;;;;;;3.39;100.00;97452.23;110465;1240;59646;-69
2023/12/08 10:22:45;;;;;;;;;;;;;;;3.32;100.00;97451.64;110529;1242;59727;-69
2023/12/08 10:25:23;;;;;;;22.00;12.50;;;;;;;3.28;100.00;97455.07;110426;1240;70638;-69
2023/12/08 10:27:54;;;;;;;23.60;13.90;;;;;;;3.25;100.00;97451.80;110404;1242;69229;-69
2023/12/08 10:30:26;;;;;;;21.50;13.60;;;;;;;3.23;100.00;97448.79;110356;1240;69189;-69
2023/12/08 10:32:57;;;;;;;22.00;12.80;;;;;;;3.30;100.00;97446.58;110419;1241;59737;-69
2023/12/08 10:35:27;;;;;;;20.50;12.20;;;;;;;3.29;100.00;97448.67;110413;1241;59803;-69
2023/12/08 10:37:56;;;;;;;17.40;11.40;;;;;;;3.32;100.00;97450.98;110250;1238;71934;-68
2023/12/08 10:40:26;;;;;;;14.50;10.40;;;;;;;3.37;100.00;97452.15;110403;1242;69399;-68
2023/12/08 10:42:55;;;;;;;19.40;10.90;;;;;;;3.39;100.00;97448.44;110377;1240;69635;-69
2023/12/08 10:45:25;;;;;;;18.90;12.10;;;;;;;3.38;100.00;97448.81;110412;1240;59650;-69
2023/12/08 10:47:55;;;;;;;19.60;12.30;;;;;;;3.40;100.00;97445.65;110528;1240;59630;-69
2023/12/08 10:50:26;;;;;;;17.90;11.00;;;;;;;3.39;100.00;97447.23;110384;1241;70698;-69
2023/12/08 10:53:00;;;;;;;19.00;11.80;;;;;;;3.45;100.00;97450.73;110502;1240;69786;-70
2023/12/08 10:55:29;;;;;;;17.30;10.90;;;;;;;3.49;100.00;97455.38;110512;1242;68547;-69
2023/12/08 10:58:02;;;;;;;16.90;9.80;;;;;;;3.50;100.00;97457.27;110435;1241;59770;-68
2023/12/08 11:00:32;;;;;;;15.60;10.60;;;;;;;3.53;100.00;97456.27;110532;1238;59717;-69
2023/12/08 11:03:01;;;;;;;;;;;;;;;3.57;100.00;97452.61;110498;1241;69953;-69
2023/12/08 11:05:48;;;;;;;20.30;12.60;;;;;;;3.58;100.00;97450.70;110630;1242;68496;-69
2023/12/08 11:08:18;;;;;;;23.30;15.00;;;;;;;3.56;100.00;97448.20;110490;1240;68703;-69
2023/12/08 11:10:56;;;;;;;19.80;13.50;;;;;;;3.58;100.00;97451.37;110619;1241;59673;-67
2023/12/08 11:13:30;;;;;;;18.10;11.50;;;;;;;3.62;100.00;97453.64;110485;1241;59702;-68
2023/12/08 11:16:18;;;;;;;21.50;14.30;;;;;;;3.63;100.00;97450.85;110499;1242;71376;-68
2023/12/08 11:18:48;;;;;;;19.40;12.00;;;;;;;3.64;100.00;97450.64;110257;1242;68846;-69
2023/12/08 11:21:18;;;;;;;22.50;13.90;;;;;;;3.65;100.00;97450.39;110529;1241;69340;-69
2023/12/08 11:23:48;;;;;;;23.60;16.10;;;;;;;3.67;100.00;97448.08;110513;1242;59669;-69
2023/12/08 11:26:35;;;;;;;;;;;;;;;3.69;100.00;97445.73;110413;1241;59692;-69
2023/12/08 11:29:30;;;;;;;17.20;11.60;;;;;;;3.68;100.00;97445.93;110481;1246;70712;-69
2023/12/08 11:32:18;;;;;;;16.30;11.30;;;;;;;3.69;100.00;97444.19;110495;1242;68168;-69
2023/12/08 11:34:59;;;;;;;14.50;9.90;;;;;;;3.72;100.00;97439.58;110507;1242;69746;-69